Terminal Aerodrome Forecast
Issued by NWS Cleveland, OH

Home | Current Version | Previous Version | Text Only | Print | Product List | Glossary On
Versions: 1 2 3 4 5 6 7 8 9 10 11 12 13 14 15 16 17 18 19 20 21
700
FTUS41 KCLE 180545
TAFTOL
TAF
KTOL 180545Z 1806/1906 27008KT 6SM BR OVC015
     FM180800 27008KT P6SM BKN025 BKN040
     FM181300 22006KT P6SM SKC
     FM181900 18008KT P6SM BKN250=

USA.gov is the U.S. government's official web portal to all federal, state and local government web resources and services.